sensor_id;sensor_type;location;lat;lon;timestamp;pressure;altitude;pressure_sealevel;temperature;humidity
498;BME280;39559;48.630;9.162;2022-08-04T00:00:11;97313.84;;;17.05;100.00
498;BME280;39559;48.630;9.162;2022-08-04T00:08:48;97305.81;;;16.96;100.00
498;BME280;39559;48.630;9.162;2022-08-04T00:11:19;97308.75;;;16.91;100.00
498;BME280;39559;48.630;9.162;2022-08-04T00:13:53;97309.81;;;16.88;100.00
498;BME280;39559;48.630;9.162;2022-08-04T00:16:21;97310.44;;;16.92;100.00
498;BME280;39559;48.630;9.162;2022-08-04T00:18:53;97315.28;;;16.85;100.00
498;BME280;39559;48.630;9.162;2022-08-04T00:23:54;97314.97;;;16.77;100.00
498;BME280;39559;48.630;9.162;2022-08-04T00:26:20;97308.75;;;16.78;100.00
498;BME280;39559;48.630;9.162;2022-08-04T00:28:47;97313.38;;;16.75;100.00
498;BME280;39559;48.630;9.162;2022-08-04T00:31:14;97311.72;;;16.74;100.00
498;BME280;39559;48.630;9.162;2022-08-04T00:33:43;97319.88;;;16.82;100.00
498;BME280;39559;48.630;9.162;2022-08-04T00:36:12;97320.63;;;16.71;100.00
498;BME280;39559;48.630;9.162;2022-08-04T00:38:40;97323.88;;;16.62;100.00
498;BME280;39559;48.630;9.162;2022-08-04T00:43:33;97321.69;;;16.56;100.00
498;BME280;39559;48.630;9.162;2022-08-04T01:02:27;97321.47;;;16.46;100.00
498;BME280;39559;48.630;9.162;2022-08-04T01:05:13;97317.81;;;16.48;100.00
498;BME280;39559;48.630;9.162;2022-08-04T01:08:10;97320.84;;;16.42;100.00
498;BME280;39559;48.630;9.162;2022-08-04T01:12:07;97320.75;;;16.44;100.00
498;BME280;39559;48.630;9.162;2022-08-04T01:14:45;97317.31;;;16.30;100.00
498;BME280;39559;48.630;9.162;2022-08-04T01:17:29;97315.31;;;16.34;100.00
498;BME280;39559;48.630;9.162;2022-08-04T01:20:08;97318.13;;;16.31;100.00
498;BME280;39559;48.630;9.162;2022-08-04T01:22:40;97320.75;;;16.18;100.00
498;BME280;39559;48.630;9.162;2022-08-04T01:30:26;97313.09;;;16.15;100.00
498;BME280;39559;48.630;9.162;2022-08-04T01:33:01;97305.22;;;16.02;100.00
498;BME280;39559;48.630;9.162;2022-08-04T01:35:58;97302.94;;;15.98;100.00
498;BME280;39559;48.630;9.162;2022-08-04T01:38:35;97305.66;;;15.96;100.00
498;BME280;39559;48.630;9.162;2022-08-04T01:41:13;97304.72;;;15.97;100.00
498;BME280;39559;48.630;9.162;2022-08-04T01:43:42;97298.53;;;15.98;100.00
498;BME280;39559;48.630;9.162;2022-08-04T01:46:13;97297.06;;;15.94;100.00
498;BME280;39559;48.630;9.162;2022-08-04T01:48:41;97300.50;;;15.82;100.00
498;BME280;39559;48.630;9.162;2022-08-04T01:51:08;97299.56;;;15.83;100.00
498;BME280;39559;48.630;9.162;2022-08-04T01:53:36;97299.25;;;15.87;100.00
498;BME280;39559;48.630;9.162;2022-08-04T01:56:07;97299.97;;;15.89;100.00
498;BME280;39559;48.630;9.162;2022-08-04T01:59:33;97298.81;;;15.81;100.00
498;BME280;39559;48.630;9.162;2022-08-04T02:01:59;97303.53;;;15.76;100.00
498;BME280;39559;48.630;9.162;2022-08-04T02:04:25;97293.16;;;15.74;100.00
498;BME280;39559;48.630;9.162;2022-08-04T02:10:06;97293.66;;;15.66;100.00
498;BME280;39559;48.630;9.162;2022-08-04T02:12:52;97288.63;;;15.63;100.00
498;BME280;39559;48.630;9.162;2022-08-04T02:18:24;97290.41;;;15.63;100.00
498;BME280;39559;48.630;9.162;2022-08-04T02:23:32;97291.94;;;15.52;100.00
498;BME280;39559;48.630;9.162;2022-08-04T02:26:02;97289.31;;;15.52;100.00
498;BME280;39559;48.630;9.162;2022-08-04T02:28:43;97290.75;;;15.44;100.00
498;BME280;39559;48.630;9.162;2022-08-04T02:31:24;97285.00;;;15.51;100.00
498;BME280;39559;48.630;9.162;2022-08-04T02:36:38;97283.44;;;15.49;100.00
498;BME280;39559;48.630;9.162;2022-08-04T02:39:06;97283.53;;;15.47;100.00
498;BME280;39559;48.630;9.162;2022-08-04T02:41:33;97277.88;;;15.41;100.00
498;BME280;39559;48.630;9.162;2022-08-04T02:44:01;97281.63;;;15.36;100.00
498;BME280;39559;48.630;9.162;2022-08-04T02:47:25;97274.09;;;15.32;100.00
498;BME280;39559;48.630;9.162;2022-08-04T02:49:51;97280.34;;;15.29;100.00
498;BME280;39559;48.630;9.162;2022-08-04T02:52:18;97281.41;;;15.27;100.00
498;BME280;39559;48.630;9.162;2022-08-04T02:54:46;97274.78;;;15.21;100.00
498;BME280;39559;48.630;9.162;2022-08-04T02:57:14;97283.47;;;15.22;100.00
498;BME280;39559;48.630;9.162;2022-08-04T03:00:10;97287.00;;;15.21;100.00
498;BME280;39559;48.630;9.162;2022-08-04T03:06:06;97282.81;;;15.18;100.00
498;BME280;39559;48.630;9.162;2022-08-04T03:14:36;97278.94;;;15.11;100.00
498;BME280;39559;48.630;9.162;2022-08-04T03:49:23;97292.72;;;14.86;100.00
498;BME280;39559;48.630;9.162;2022-08-04T04:05:21;97286.19;;;14.78;100.00
498;BME280;39559;48.630;9.162;2022-08-04T04:19:51;97288.91;;;14.77;100.00
498;BME280;39559;48.630;9.162;2022-08-04T04:29:01;97286.09;;;14.80;100.00
498;BME280;39559;48.630;9.162;2022-08-04T04:31:37;97281.59;;;14.82;100.00
498;BME280;39559;48.630;9.162;2022-08-04T04:34:20;97287.69;;;14.83;100.00
498;BME280;39559;48.630;9.162;2022-08-04T04:39:47;97293.59;;;14.72;100.00
498;BME280;39559;48.630;9.162;2022-08-04T04:55:38;97295.00;;;14.77;100.00
498;BME280;39559;48.630;9.162;2022-08-04T04:58:07;97300.00;;;14.81;100.00
498;BME280;39559;48.630;9.162;2022-08-04T05:03:32;97300.28;;;14.90;100.00
498;BME280;39559;48.630;9.162;2022-08-04T05:13:38;97307.72;;;14.96;100.00
498;BME280;39559;48.630;9.162;2022-08-04T05:16:11;97307.44;;;15.01;100.00
498;BME280;39559;48.630;9.162;2022-08-04T05:18:41;97307.44;;;15.01;100.00
498;BME280;39559;48.630;9.162;2022-08-04T05:21:36;97303.88;;;15.02;100.00
498;BME280;39559;48.630;9.162;2022-08-04T05:24:08;97309.56;;;15.09;100.00
498;BME280;39559;48.630;9.162;2022-08-04T05:26:39;97311.91;;;15.13;100.00
498;BME280;39559;48.630;9.162;2022-08-04T05:29:10;97310.69;;;15.19;100.00
498;BME280;39559;48.630;9.162;2022-08-04T05:31:40;97315.31;;;15.28;100.00
498;BME280;39559;48.630;9.162;2022-08-04T05:35:14;97304.34;;;15.36;100.00
498;BME280;39559;48.630;9.162;2022-08-04T05:37:42;97305.53;;;15.45;100.00
498;BME280;39559;48.630;9.162;2022-08-04T05:40:10;97310.81;;;15.58;100.00
498;BME280;39559;48.630;9.162;2022-08-04T05:42:38;97309.13;;;15.69;100.00
498;BME280;39559;48.630;9.162;2022-08-04T05:45:06;97306.56;;;15.82;100.00
498;BME280;39559;48.630;9.162;2022-08-04T05:47:34;97307.09;;;15.87;100.00
498;BME280;39559;48.630;9.162;2022-08-04T05:50:04;97311.34;;;16.03;100.00
498;BME280;39559;48.630;9.162;2022-08-04T05:52:31;97310.59;;;16.14;100.00
498;BME280;39559;48.630;9.162;2022-08-04T05:54:59;97313.44;;;16.23;100.00
498;BME280;39559;48.630;9.162;2022-08-04T05:58:49;97311.72;;;16.35;100.00
498;BME280;39559;48.630;9.162;2022-08-04T06:01:17;97309.09;;;16.48;100.00
498;BME280;39559;48.630;9.162;2022-08-04T06:03:44;97303.97;;;16.59;100.00
498;BME280;39559;48.630;9.162;2022-08-04T06:06:13;97315.38;;;16.71;100.00
498;BME280;39559;48.630;9.162;2022-08-04T06:08:39;97307.09;;;16.77;100.00
498;BME280;39559;48.630;9.162;2022-08-04T06:11:08;97302.66;;;16.91;100.00
498;BME280;39559;48.630;9.162;2022-08-04T06:13:42;97304.34;;;16.92;100.00
498;BME280;39559;48.630;9.162;2022-08-04T06:16:09;97306.19;;;17.02;100.00
498;BME280;39559;48.630;9.162;2022-08-04T06:18:38;97308.03;;;17.13;100.00
498;BME280;39559;48.630;9.162;2022-08-04T06:22:49;97299.94;;;17.40;100.00
498;BME280;39559;48.630;9.162;2022-08-04T06:25:19;97300.16;;;17.61;100.00
498;BME280;39559;48.630;9.162;2022-08-04T06:27:46;97300.81;;;17.76;100.00
498;BME280;39559;48.630;9.162;2022-08-04T06:30:12;97305.06;;;17.90;100.00
498;BME280;39559;48.630;9.162;2022-08-04T06:32:43;97294.59;;;18.01;100.00
498;BME280;39559;48.630;9.162;2022-08-04T06:35:20;97302.97;;;18.18;100.00
498;BME280;39559;48.630;9.162;2022-08-04T06:37:46;97303.22;;;18.26;100.00
498;BME280;39559;48.630;9.162;2022-08-04T06:40:17;97300.63;;;18.49;100.00
498;BME280;39559;48.630;9.162;2022-08-04T06:42:44;97297.63;;;18.65;100.00
498;BME280;39559;48.630;9.162;2022-08-04T06:46:42;97297.63;;;18.87;100.00
498;BME280;39559;48.630;9.162;2022-08-04T06:49:08;97296.97;;;19.06;100.00
498;BME280;39559;48.630;9.162;2022-08-04T06:51:36;97299.56;;;19.29;100.00
498;BME280;39559;48.630;9.162;2022-08-04T06:54:03;97301.03;;;19.54;100.00
498;BME280;39559;48.630;9.162;2022-08-04T06:56:30;97301.00;;;19.65;100.00
498;BME280;39559;48.630;9.162;2022-08-04T06:58:59;97307.91;;;19.78;100.00
498;BME280;39559;48.630;9.162;2022-08-04T07:01:26;97301.47;;;19.91;100.00
498;BME280;39559;48.630;9.162;2022-08-04T07:03:53;97313.38;;;20.07;100.00
498;BME280;39559;48.630;9.162;2022-08-04T07:06:22;97306.44;;;20.27;100.00
498;BME280;39559;48.630;9.162;2022-08-04T07:10:52;97301.53;;;20.53;100.00
498;BME280;39559;48.630;9.162;2022-08-04T07:13:20;97304.56;;;20.69;100.00
498;BME280;39559;48.630;9.162;2022-08-04T07:15:47;97306.34;;;21.09;100.00
498;BME280;39559;48.630;9.162;2022-08-04T07:18:13;97300.97;;;21.31;100.00
498;BME280;39559;48.630;9.162;2022-08-04T07:20:43;97296.16;;;21.45;99.15
498;BME280;39559;48.630;9.162;2022-08-04T07:23:11;97300.59;;;21.64;98.31
498;BME280;39559;48.630;9.162;2022-08-04T07:25:42;97293.63;;;21.73;100.00
498;BME280;39559;48.630;9.162;2022-08-04T07:28:12;97290.00;;;21.84;100.00
498;BME280;39559;48.630;9.162;2022-08-04T07:30:39;97290.25;;;22.00;96.74
498;BME280;39559;48.630;9.162;2022-08-04T07:34:36;97287.44;;;22.21;95.32
498;BME280;39559;48.630;9.162;2022-08-04T07:37:02;97295.25;;;22.33;98.98
498;BME280;39559;48.630;9.162;2022-08-04T07:39:28;97281.97;;;22.42;96.93
498;BME280;39559;48.630;9.162;2022-08-04T07:41:58;97284.25;;;22.65;94.44
498;BME280;39559;48.630;9.162;2022-08-04T07:44:25;97287.44;;;22.96;89.14
498;BME280;39559;48.630;9.162;2022-08-04T07:46:50;97284.91;;;23.05;91.21
498;BME280;39559;48.630;9.162;2022-08-04T07:49:16;97283.19;;;23.13;94.72
498;BME280;39559;48.630;9.162;2022-08-04T07:51:42;97281.16;;;23.25;94.37
498;BME280;39559;48.630;9.162;2022-08-04T07:54:08;97282.16;;;23.42;88.33
498;BME280;39559;48.630;9.162;2022-08-04T07:58:30;97278.34;;;23.63;82.38
498;BME280;39559;48.630;9.162;2022-08-04T08:00:56;97281.00;;;23.99;83.68
498;BME280;39559;48.630;9.162;2022-08-04T08:03:23;97278.50;;;23.97;85.53
498;BME280;39559;48.630;9.162;2022-08-04T08:05:49;97276.81;;;24.14;78.82
498;BME280;39559;48.630;9.162;2022-08-04T08:08:16;97274.41;;;24.29;77.77
498;BME280;39559;48.630;9.162;2022-08-04T08:10:45;97271.31;;;24.42;78.43
498;BME280;39559;48.630;9.162;2022-08-04T08:13:11;97271.75;;;24.55;78.98
498;BME280;39559;48.630;9.162;2022-08-04T08:15:37;97270.25;;;24.52;80.24
498;BME280;39559;48.630;9.162;2022-08-04T08:18:03;97263.63;;;24.57;80.37
498;BME280;39559;48.630;9.162;2022-08-04T08:22:27;97265.94;;;24.94;76.84
498;BME280;39559;48.630;9.162;2022-08-04T08:24:53;97262.81;;;25.15;73.68
498;BME280;39559;48.630;9.162;2022-08-04T08:27:19;97261.53;;;25.36;70.24
498;BME280;39559;48.630;9.162;2022-08-04T08:29:45;97260.06;;;25.33;74.95
498;BME280;39559;48.630;9.162;2022-08-04T08:32:12;97255.25;;;25.45;73.45
498;BME280;39559;48.630;9.162;2022-08-04T08:34:39;97261.41;;;25.62;74.46
498;BME280;39559;48.630;9.162;2022-08-04T08:37:18;97261.41;;;25.86;68.42
498;BME280;39559;48.630;9.162;2022-08-04T08:39:54;97256.75;;;26.13;63.84
498;BME280;39559;48.630;9.162;2022-08-04T08:55:28;97262.63;;;26.96;59.50
498;BME280;39559;48.630;9.162;2022-08-04T09:12:51;97264.91;;;27.85;53.69
498;BME280;39559;48.630;9.162;2022-08-04T09:15:33;97263.66;;;27.95;54.38
498;BME280;39559;48.630;9.162;2022-08-04T09:18:19;97264.00;;;28.30;52.99
498;BME280;39559;48.630;9.162;2022-08-04T09:20:49;97256.91;;;28.23;54.85
498;BME280;39559;48.630;9.162;2022-08-04T09:23:40;97259.31;;;28.47;54.68
498;BME280;39559;48.630;9.162;2022-08-04T09:26:28;97262.38;;;28.59;54.31
498;BME280;39559;48.630;9.162;2022-08-04T09:29:07;97261.28;;;28.53;53.60
498;BME280;39559;48.630;9.162;2022-08-04T09:34:26;97258.06;;;28.58;52.88
498;BME280;39559;48.630;9.162;2022-08-04T09:37:08;97249.56;;;28.69;53.95
498;BME280;39559;48.630;9.162;2022-08-04T09:40:18;97255.47;;;28.80;55.84
498;BME280;39559;48.630;9.162;2022-08-04T09:46:23;97248.22;;;28.95;55.13
498;BME280;39559;48.630;9.162;2022-08-04T09:54:24;97242.06;;;29.31;52.89
498;BME280;39559;48.630;9.162;2022-08-04T09:58:21;97238.13;;;29.48;51.66
498;BME280;39559;48.630;9.162;2022-08-04T10:00:59;97243.72;;;29.54;51.86
498;BME280;39559;48.630;9.162;2022-08-04T10:03:32;97240.94;;;29.40;53.55
498;BME280;39559;48.630;9.162;2022-08-04T10:14:47;97226.72;;;30.11;46.92
498;BME280;39559;48.630;9.162;2022-08-04T10:22:19;97215.69;;;30.62;44.88
498;BME280;39559;48.630;9.162;2022-08-04T10:27:33;97213.81;;;31.11;40.25
498;BME280;39559;48.630;9.162;2022-08-04T10:30:06;97208.94;;;30.73;42.75
498;BME280;39559;48.630;9.162;2022-08-04T10:35:32;97211.16;;;30.63;43.52
498;BME280;39559;48.630;9.162;2022-08-04T10:41:05;97197.94;;;31.10;40.27
498;BME280;39559;48.630;9.162;2022-08-04T10:46:09;97199.03;;;31.49;41.73
498;BME280;39559;48.630;9.162;2022-08-04T10:48:55;97194.28;;;31.84;42.46
498;BME280;39559;48.630;9.162;2022-08-04T10:51:33;97195.13;;;31.65;41.95
498;BME280;39559;48.630;9.162;2022-08-04T10:54:11;97198.22;;;31.68;40.58
498;BME280;39559;48.630;9.162;2022-08-04T10:56:41;97198.78;;;31.24;41.08
498;BME280;39559;48.630;9.162;2022-08-04T10:59:27;97196.28;;;31.15;42.48
498;BME280;39559;48.630;9.162;2022-08-04T11:02:04;97200.66;;;31.43;37.53
498;BME280;39559;48.630;9.162;2022-08-04T11:07:09;97195.72;;;31.87;35.89
498;BME280;39559;48.630;9.162;2022-08-04T11:09:52;97197.00;;;32.11;35.97
498;BME280;39559;48.630;9.162;2022-08-04T11:12:23;97197.16;;;31.96;37.96
498;BME280;39559;48.630;9.162;2022-08-04T11:15:24;97188.25;;;32.29;38.91
498;BME280;39559;48.630;9.162;2022-08-04T11:17:56;97182.16;;;32.53;34.27
498;BME280;39559;48.630;9.162;2022-08-04T11:20:36;97187.34;;;32.48;37.17
498;BME280;39559;48.630;9.162;2022-08-04T11:23:06;97191.53;;;32.38;38.21
498;BME280;39559;48.630;9.162;2022-08-04T11:25:40;97191.31;;;32.39;37.27
498;BME280;39559;48.630;9.162;2022-08-04T11:28:24;97189.44;;;32.46;37.40
498;BME280;39559;48.630;9.162;2022-08-04T11:30:58;97190.91;;;32.29;36.05
498;BME280;39559;48.630;9.162;2022-08-04T11:33:56;97187.06;;;32.11;39.84
498;BME280;39559;48.630;9.162;2022-08-04T11:36:45;97188.28;;;32.22;39.03
498;BME280;39559;48.630;9.162;2022-08-04T11:39:33;97182.09;;;32.15;38.19
498;BME280;39559;48.630;9.162;2022-08-04T11:42:24;97184.47;;;32.50;36.35
498;BME280;39559;48.630;9.162;2022-08-04T11:45:00;97177.84;;;32.59;38.27
498;BME280;39559;48.630;9.162;2022-08-04T11:47:28;97171.44;;;32.99;34.71
498;BME280;39559;48.630;9.162;2022-08-04T11:50:02;97171.53;;;32.79;34.55
498;BME280;39559;48.630;9.162;2022-08-04T11:52:29;97173.97;;;32.87;38.28
498;BME280;39559;48.630;9.162;2022-08-04T11:54:57;97172.81;;;33.08;40.39
498;BME280;39559;48.630;9.162;2022-08-04T11:57:40;97168.03;;;33.10;37.65
498;BME280;39559;48.630;9.162;2022-08-04T12:00:11;97167.38;;;33.21;37.17
498;BME280;39559;48.630;9.162;2022-08-04T12:05:33;97172.69;;;32.96;35.76
498;BME280;39559;48.630;9.162;2022-08-04T12:08:23;97167.97;;;33.23;34.30
498;BME280;39559;48.630;9.162;2022-08-04T12:11:41;97166.00;;;33.69;34.83
498;BME280;39559;48.630;9.162;2022-08-04T12:16:41;97161.63;;;33.75;32.19
498;BME280;39559;48.630;9.162;2022-08-04T12:24:16;97158.16;;;34.30;30.77
498;BME280;39559;48.630;9.162;2022-08-04T12:26:53;97157.94;;;34.50;29.06
498;BME280;39559;48.630;9.162;2022-08-04T12:29:21;97157.66;;;34.88;30.20
498;BME280;39559;48.630;9.162;2022-08-04T12:31:57;97159.63;;;34.63;32.04
498;BME280;39559;48.630;9.162;2022-08-04T12:34:34;97147.97;;;34.69;33.48
498;BME280;39559;48.630;9.162;2022-08-04T12:39:51;97145.50;;;34.97;31.89
498;BME280;39559;48.630;9.162;2022-08-04T12:45:27;97138.94;;;35.05;31.35
498;BME280;39559;48.630;9.162;2022-08-04T12:47:56;97136.63;;;34.78;32.92
498;BME280;39559;48.630;9.162;2022-08-04T12:50:23;97123.59;;;34.75;28.77
498;BME280;39559;48.630;9.162;2022-08-04T12:52:55;97129.94;;;34.32;31.88
498;BME280;39559;48.630;9.162;2022-08-04T12:55:24;97126.53;;;34.00;36.84
498;BME280;39559;48.630;9.162;2022-08-04T12:57:52;97142.44;;;33.58;38.67
498;BME280;39559;48.630;9.162;2022-08-04T13:00:33;97130.81;;;33.14;37.88
498;BME280;39559;48.630;9.162;2022-08-04T13:03:05;97135.75;;;33.10;36.83
498;BME280;39559;48.630;9.162;2022-08-04T13:05:32;97134.50;;;32.29;40.37
498;BME280;39559;48.630;9.162;2022-08-04T13:09:19;97137.09;;;32.94;41.34
498;BME280;39559;48.630;9.162;2022-08-04T13:12:03;97129.38;;;33.36;39.75
498;BME280;39559;48.630;9.162;2022-08-04T13:14:35;97125.59;;;33.69;39.32
498;BME280;39559;48.630;9.162;2022-08-04T13:17:02;97125.19;;;34.09;40.49
498;BME280;39559;48.630;9.162;2022-08-04T13:19:30;97118.78;;;34.29;36.01
498;BME280;39559;48.630;9.162;2022-08-04T13:21:55;97115.53;;;34.01;36.15
498;BME280;39559;48.630;9.162;2022-08-04T13:24:22;97113.81;;;34.44;35.85
498;BME280;39559;48.630;9.162;2022-08-04T13:27:05;97114.56;;;34.82;31.76
498;BME280;39559;48.630;9.162;2022-08-04T13:29:40;97109.38;;;35.10;33.42
498;BME280;39559;48.630;9.162;2022-08-04T13:33:10;97099.91;;;35.20;30.97
498;BME280;39559;48.630;9.162;2022-08-04T13:35:42;97096.22;;;35.91;30.90
498;BME280;39559;48.630;9.162;2022-08-04T13:38:11;97092.00;;;35.72;34.86
498;BME280;39559;48.630;9.162;2022-08-04T13:40:38;97089.16;;;35.55;30.78
498;BME280;39559;48.630;9.162;2022-08-04T13:43:06;97099.31;;;35.17;33.01
498;BME280;39559;48.630;9.162;2022-08-04T13:45:35;97096.69;;;35.88;32.53
498;BME280;39559;48.630;9.162;2022-08-04T13:48:02;97099.25;;;35.24;33.19
498;BME280;39559;48.630;9.162;2022-08-04T13:50:30;97094.06;;;35.23;32.45
498;BME280;39559;48.630;9.162;2022-08-04T13:52:59;97088.06;;;35.32;31.99
498;BME280;39559;48.630;9.162;2022-08-04T13:57:12;97080.16;;;35.07;32.26
498;BME280;39559;48.630;9.162;2022-08-04T13:59:43;97083.84;;;35.36;31.30
498;BME280;39559;48.630;9.162;2022-08-04T14:02:24;97083.28;;;35.46;31.27
498;BME280;39559;48.630;9.162;2022-08-04T14:04:54;97087.25;;;35.32;33.38
498;BME280;39559;48.630;9.162;2022-08-04T14:07:24;97074.16;;;34.93;32.25
498;BME280;39559;48.630;9.162;2022-08-04T14:09:50;97079.75;;;35.34;32.76
498;BME280;39559;48.630;9.162;2022-08-04T14:12:16;97072.94;;;35.20;31.93
498;BME280;39559;48.630;9.162;2022-08-04T14:14:47;97074.25;;;35.41;31.54
498;BME280;39559;48.630;9.162;2022-08-04T14:17:15;97066.97;;;35.29;31.82
498;BME280;39559;48.630;9.162;2022-08-04T14:23:45;97060.72;;;35.29;30.51
498;BME280;39559;48.630;9.162;2022-08-04T14:26:25;97062.69;;;35.10;32.50
498;BME280;39559;48.630;9.162;2022-08-04T14:28:52;97064.69;;;34.72;31.54
498;BME280;39559;48.630;9.162;2022-08-04T14:31:20;97058.53;;;34.53;30.66
498;BME280;39559;48.630;9.162;2022-08-04T14:33:48;97053.94;;;34.54;34.17
498;BME280;39559;48.630;9.162;2022-08-04T14:36:15;97050.84;;;34.38;35.83
498;BME280;39559;48.630;9.162;2022-08-04T14:38:48;97053.72;;;34.55;32.62
498;BME280;39559;48.630;9.162;2022-08-04T14:41:16;97055.22;;;34.82;33.47
498;BME280;39559;48.630;9.162;2022-08-04T14:44:57;97052.66;;;34.56;34.31
498;BME280;39559;48.630;9.162;2022-08-04T14:50:03;97045.03;;;34.04;34.13
498;BME280;39559;48.630;9.162;2022-08-04T14:52:29;97051.97;;;34.31;35.49
498;BME280;39559;48.630;9.162;2022-08-04T14:54:54;97046.06;;;34.40;33.30
498;BME280;39559;48.630;9.162;2022-08-04T14:57:20;97045.47;;;34.20;35.41
498;BME280;39559;48.630;9.162;2022-08-04T14:59:48;97044.00;;;34.24;36.36
498;BME280;39559;48.630;9.162;2022-08-04T15:02:15;97042.63;;;34.15;32.74
498;BME280;39559;48.630;9.162;2022-08-04T15:04:42;97045.53;;;34.32;30.49
498;BME280;39559;48.630;9.162;2022-08-04T15:08:37;97042.03;;;34.31;32.66
498;BME280;39559;48.630;9.162;2022-08-04T15:11:03;97033.47;;;34.34;29.84
498;BME280;39559;48.630;9.162;2022-08-04T15:13:32;97046.13;;;34.34;32.48
498;BME280;39559;48.630;9.162;2022-08-04T15:15:57;97040.38;;;34.30;32.58
498;BME280;39559;48.630;9.162;2022-08-04T15:18:24;97044.41;;;34.39;32.29
498;BME280;39559;48.630;9.162;2022-08-04T15:20:56;97044.81;;;34.25;33.68
498;BME280;39559;48.630;9.162;2022-08-04T15:23:22;97037.69;;;34.30;36.65
498;BME280;39559;48.630;9.162;2022-08-04T15:25:51;97043.66;;;34.14;32.86
498;BME280;39559;48.630;9.162;2022-08-04T15:28:19;97047.00;;;33.79;32.56
498;BME280;39559;48.630;9.162;2022-08-04T15:32:36;97049.09;;;33.77;38.46
498;BME280;39559;48.630;9.162;2022-08-04T15:35:17;97047.28;;;33.89;37.93
498;BME280;39559;48.630;9.162;2022-08-04T15:38:14;97036.06;;;33.92;35.74
498;BME280;39559;48.630;9.162;2022-08-04T15:43:55;97038.75;;;33.74;35.70
498;BME280;39559;48.630;9.162;2022-08-04T15:49:24;97046.84;;;33.48;36.85
498;BME280;39559;48.630;9.162;2022-08-04T15:52:00;97048.56;;;33.43;38.08
498;BME280;39559;48.630;9.162;2022-08-04T15:58:52;97034.47;;;33.22;38.56
498;BME280;39559;48.630;9.162;2022-08-04T16:01:19;97045.06;;;33.17;37.71
498;BME280;39559;48.630;9.162;2022-08-04T16:03:47;97033.13;;;33.13;35.41
498;BME280;39559;48.630;9.162;2022-08-04T16:16:26;97020.19;;;32.97;39.12
498;BME280;39559;48.630;9.162;2022-08-04T16:20:13;97025.78;;;32.95;36.04
498;BME280;39559;48.630;9.162;2022-08-04T16:22:39;97022.41;;;33.00;34.76
498;BME280;39559;48.630;9.162;2022-08-04T16:25:08;97023.88;;;33.02;37.79
498;BME280;39559;48.630;9.162;2022-08-04T16:27:41;97021.16;;;32.77;38.10
498;BME280;39559;48.630;9.162;2022-08-04T16:30:10;97020.56;;;32.75;38.78
498;BME280;39559;48.630;9.162;2022-08-04T16:32:45;97020.28;;;32.83;41.66
498;BME280;39559;48.630;9.162;2022-08-04T16:35:20;97017.38;;;32.85;41.39
498;BME280;39559;48.630;9.162;2022-08-04T16:37:52;97014.19;;;32.69;41.21
498;BME280;39559;48.630;9.162;2022-08-04T16:40:44;97018.19;;;32.53;44.05
498;BME280;39559;48.630;9.162;2022-08-04T16:44:31;97017.03;;;32.36;41.05
498;BME280;39559;48.630;9.162;2022-08-04T16:46:59;97013.41;;;32.24;43.83
498;BME280;39559;48.630;9.162;2022-08-04T16:49:28;97014.81;;;32.33;47.25
498;BME280;39559;48.630;9.162;2022-08-04T16:52:00;97012.06;;;31.94;46.09
498;BME280;39559;48.630;9.162;2022-08-04T16:54:35;97006.47;;;31.96;47.52
498;BME280;39559;48.630;9.162;2022-08-04T16:57:08;97007.41;;;31.70;49.24
498;BME280;39559;48.630;9.162;2022-08-04T16:59:34;97003.69;;;31.71;52.66
498;BME280;39559;48.630;9.162;2022-08-04T17:02:00;97005.41;;;31.38;53.70
498;BME280;39559;48.630;9.162;2022-08-04T17:04:28;97001.28;;;31.49;56.35
498;BME280;39559;48.630;9.162;2022-08-04T17:07:56;97014.31;;;31.06;62.82
498;BME280;39559;48.630;9.162;2022-08-04T17:10:44;97000.28;;;31.04;56.47
498;BME280;39559;48.630;9.162;2022-08-04T17:16:00;96994.25;;;30.81;58.36
498;BME280;39559;48.630;9.162;2022-08-04T17:18:28;96994.69;;;30.72;64.69
498;BME280;39559;48.630;9.162;2022-08-04T17:20:58;96995.69;;;30.57;66.54
498;BME280;39559;48.630;9.162;2022-08-04T17:23:45;96996.72;;;30.36;66.17
498;BME280;39559;48.630;9.162;2022-08-04T17:26:15;96999.72;;;30.20;63.95
498;BME280;39559;48.630;9.162;2022-08-04T17:28:45;96992.66;;;29.99;65.18
498;BME280;39559;48.630;9.162;2022-08-04T17:31:45;96994.44;;;29.78;57.83
498;BME280;39559;48.630;9.162;2022-08-04T17:34:13;97000.47;;;29.59;59.13
498;BME280;39559;48.630;9.162;2022-08-04T17:36:40;96989.59;;;29.32;73.32
498;BME280;39559;48.630;9.162;2022-08-04T17:39:17;96990.41;;;29.26;74.35
498;BME280;39559;48.630;9.162;2022-08-04T17:41:45;96993.66;;;29.21;75.97
498;BME280;39559;48.630;9.162;2022-08-04T17:44:11;96993.91;;;28.98;76.43
498;BME280;39559;48.630;9.162;2022-08-04T17:46:42;96986.50;;;29.00;75.56
498;BME280;39559;48.630;9.162;2022-08-04T17:51:58;96995.94;;;28.96;75.30
498;BME280;39559;48.630;9.162;2022-08-04T17:55:44;96994.88;;;28.69;75.51
498;BME280;39559;48.630;9.162;2022-08-04T17:58:14;97002.75;;;28.56;75.78
498;BME280;39559;48.630;9.162;2022-08-04T18:00:40;96990.69;;;28.23;77.68
498;BME280;39559;48.630;9.162;2022-08-04T18:03:06;97004.22;;;27.85;81.30
498;BME280;39559;48.630;9.162;2022-08-04T18:05:32;96996.50;;;27.61;81.20
498;BME280;39559;48.630;9.162;2022-08-04T18:08:05;97004.69;;;27.44;83.00
498;BME280;39559;48.630;9.162;2022-08-04T18:10:39;97003.78;;;27.37;82.89
498;BME280;39559;48.630;9.162;2022-08-04T18:13:06;97009.91;;;27.23;82.17
498;BME280;39559;48.630;9.162;2022-08-04T18:15:32;97007.84;;;27.10;82.67
498;BME280;39559;48.630;9.162;2022-08-04T18:19:27;97005.22;;;26.87;82.82
498;BME280;39559;48.630;9.162;2022-08-04T18:21:52;97014.69;;;26.74;83.39
498;BME280;39559;48.630;9.162;2022-08-04T18:24:18;97012.25;;;26.65;82.86
498;BME280;39559;48.630;9.162;2022-08-04T18:26:44;97004.16;;;26.50;83.16
498;BME280;39559;48.630;9.162;2022-08-04T18:29:10;97010.88;;;26.46;81.69
498;BME280;39559;48.630;9.162;2022-08-04T18:31:35;97014.81;;;26.27;82.18
498;BME280;39559;48.630;9.162;2022-08-04T18:34:06;97020.38;;;26.09;83.55